Time;durP1;ratioP1;P1;durP2;ratioP2;P2;SDS_P1;SDS_P2;PMS_P1;PMS_P2;Temp;Humidity;BMP_temperature;BMP_pressure;BME280_temperature;BME280_humidity;BME280_pressure;Samples;Min_cycle;Max_cycle;Signal;HPM_P1;HPM_P2
2023/12/17 00:01:38;;;;;;;8.68;5.47;;;;;;;;;;6289287;28;20100;-75
2023/12/17 00:04:40;;;;;;;10.48;5.15;;;;;;;;;;6284891;28;20103;-75
2023/12/17 00:07:42;;;;;;;17.08;8.90;;;;;;;;;;6285070;28;20041;-75
2023/12/17 00:10:44;;;;;;;10.48;6.45;;;;;;;;;;6258008;28;20793;-75
2023/12/17 00:13:46;;;;;;;19.70;11.30;;;;;;;;;;6254192;28;20055;-75
2023/12/17 00:16:48;;;;;;;19.92;14.70;;;;;;;;;;6292000;28;21261;-75
2023/12/17 00:19:51;;;;;;;14.95;8.27;;;;;;;;;;6293197;28;20054;-75
2023/12/17 00:22:53;;;;;;;7.35;5.20;;;;;;;;;;6284846;28;20044;-75
2023/12/17 00:25:55;;;;;;;7.28;3.75;;;;;;;;;;6244422;28;20049;-75
2023/12/17 00:28:58;;;;;;;6.75;4.47;;;;;;;;;;6288069;28;20541;-75
2023/12/17 00:32:00;;;;;;;10.63;5.38;;;;;;;;;;6278052;28;20052;-75
2023/12/17 00:35:03;;;;;;;8.02;3.95;;;;;;;;;;6265968;28;20053;-75
2023/12/17 00:38:05;;;;;;;8.27;5.35;;;;;;;;;;6278004;28;20037;-75
2023/12/17 00:41:07;;;;;;;7.13;4.82;;;;;;;;;;6282462;28;20600;-76
2023/12/17 00:44:09;;;;;;;9.63;4.78;;;;;;;;;;6285087;28;20286;-74
2023/12/17 00:47:11;;;;;;;7.15;5.18;;;;;;;;;;6289153;28;20056;-76
2023/12/17 00:50:13;;;;;;;10.05;9.07;;;;;;;;;;6269419;28;20049;-74
2023/12/17 00:53:15;;;;;;;11.57;6.35;;;;;;;;;;6297391;28;20079;-75
2023/12/17 00:56:21;;;;;;;11.40;6.90;;;;;;;;;;6257021;28;20074;-75
2023/12/17 00:59:24;;;;;;;15.98;9.07;;;;;;;;;;6274339;28;20048;-75
2023/12/17 01:02:26;;;;;;;13.82;7.70;;;;;;;;;;6256845;28;20275;-75
2023/12/17 01:05:28;;;;;;;18.38;8.93;;;;;;;;;;6287476;28;20045;-75
2023/12/17 01:08:30;;;;;;;13.57;7.00;;;;;;;;;;6287945;28;20045;-75
2023/12/17 01:11:32;;;;;;;9.38;5.40;;;;;;;;;;6268801;28;20064;-75
2023/12/17 01:14:35;;;;;;;9.30;5.15;;;;;;;;;;6290326;28;20060;-75
2023/12/17 01:17:37;;;;;;;9.38;5.13;;;;;;;;;;6290454;28;20028;-75
2023/12/17 01:20:40;;;;;;;6.25;4.70;;;;;;;;;;6318391;28;20060;-75
2023/12/17 01:23:42;;;;;;;6.97;3.92;;;;;;;;;;6298816;28;20052;-74
2023/12/17 01:26:45;;;;;;;7.85;4.97;;;;;;;;;;6274156;28;20052;-76
2023/12/17 01:29:47;;;;;;;8.77;4.82;;;;;;;;;;6289554;28;20687;-75
2023/12/17 01:32:49;;;;;;;5.50;4.10;;;;;;;;;;6292349;28;20767;-75
2023/12/17 01:35:51;;;;;;;6.43;4.70;;;;;;;;;;6285737;28;20048;-75
2023/12/17 01:38:54;;;;;;;9.02;6.00;;;;;;;;;;6306994;28;20044;-74
2023/12/17 01:41:56;;;;;;;10.98;5.10;;;;;;;;;;6288959;28;20055;-75
2023/12/17 01:44:58;;;;;;;12.05;6.55;;;;;;;;;;6275039;28;20051;-75
2023/12/17 01:48:01;;;;;;;10.35;6.18;;;;;;;;;;6287625;28;20174;-77
2023/12/17 01:51:04;;;;;;;15.25;7.40;;;;;;;;;;6263842;28;20045;-77
2023/12/17 01:54:06;;;;;;;13.82;6.60;;;;;;;;;;6267899;28;20407;-77
2023/12/17 01:57:09;;;;;;;11.02;5.75;;;;;;;;;;6280332;28;20048;-77
2023/12/17 02:00:12;;;;;;;7.78;4.95;;;;;;;;;;6289979;28;20056;-76
2023/12/17 02:03:15;;;;;;;9.85;6.22;;;;;;;;;;6286741;28;20040;-77
2023/12/17 02:06:18;;;;;;;9.50;6.50;;;;;;;;;;6284992;28;20045;-77
2023/12/17 02:09:20;;;;;;;11.32;5.88;;;;;;;;;;6297356;28;20086;-77
2023/12/17 02:12:25;;;;;;;12.35;6.30;;;;;;;;;;6290408;28;20109;-77
2023/12/17 02:15:28;;;;;;;11.90;5.50;;;;;;;;;;6235129;28;20246;-77
2023/12/17 02:18:32;;;;;;;9.40;6.22;;;;;;;;;;6290073;28;20543;-77
2023/12/17 02:21:34;;;;;;;11.43;6.22;;;;;;;;;;6256646;28;20053;-77
2023/12/17 02:24:37;;;;;;;12.25;9.00;;;;;;;;;;6303198;28;20078;-76
2023/12/17 02:27:41;;;;;;;13.05;6.47;;;;;;;;;;6276006;28;20044;-77
2023/12/17 02:30:45;;;;;;;11.90;6.13;;;;;;;;;;6295915;28;20052;-76
2023/12/17 02:33:48;;;;;;;14.68;8.40;;;;;;;;;;6276427;28;20526;-76
2023/12/17 02:36:50;;;;;;;9.43;5.70;;;;;;;;;;6289089;28;20063;-76
2023/12/17 02:39:53;;;;;;;8.63;6.13;;;;;;;;;;6260087;28;20196;-76
2023/12/17 02:42:55;;;;;;;9.75;5.75;;;;;;;;;;6290616;28;20056;-77
2023/12/17 02:45:57;;;;;;;7.65;5.82;;;;;;;;;;6290599;28;20678;-76
2023/12/17 02:48:59;;;;;;;6.97;4.78;;;;;;;;;;6272559;28;20159;-77
2023/12/17 02:52:02;;;;;;;7.93;3.72;;;;;;;;;;6298708;28;20068;-77
2023/12/17 02:55:05;;;;;;;9.40;6.07;;;;;;;;;;6275108;28;20051;-77
2023/12/17 02:58:07;;;;;;;10.35;6.95;;;;;;;;;;6288790;28;20538;-76
2023/12/17 03:01:09;;;;;;;10.13;7.03;;;;;;;;;;6292969;28;20044;-77
2023/12/17 03:04:12;;;;;;;9.32;7.32;;;;;;;;;;6271464;28;20036;-76
2023/12/17 03:07:14;;;;;;;11.70;5.38;;;;;;;;;;6252504;28;20221;-76
2023/12/17 03:10:18;;;;;;;15.95;9.57;;;;;;;;;;6277375;28;20048;-76
2023/12/17 03:13:21;;;;;;;8.93;5.35;;;;;;;;;;6295197;28;20113;-77
2023/12/17 03:16:26;;;;;;;10.02;5.88;;;;;;;;;;6288196;28;20186;-77
2023/12/17 03:19:30;;;;;;;9.43;7.22;;;;;;;;;;6291904;28;20632;-77
2023/12/17 03:22:33;;;;;;;10.55;6.25;;;;;;;;;;6256405;28;20119;-77
2023/12/17 03:25:35;;;;;;;8.55;5.07;;;;;;;;;;6291168;28;20165;-76
2023/12/17 03:28:37;;;;;;;13.77;8.32;;;;;;;;;;6287525;28;20051;-77
2023/12/17 03:31:40;;;;;;;15.60;7.57;;;;;;;;;;6280739;28;20040;-77
2023/12/17 03:34:44;;;;;;;11.85;6.10;;;;;;;;;;6290376;28;20044;-77
2023/12/17 03:37:47;;;;;;;18.38;7.38;;;;;;;;;;6290346;28;20731;-77
2023/12/17 03:40:50;;;;;;;11.80;5.60;;;;;;;;;;6295114;28;20067;-76
2023/12/17 03:43:54;;;;;;;10.15;7.07;;;;;;;;;;6274600;28;20056;-78
2023/12/17 03:46:56;;;;;;;11.88;7.65;;;;;;;;;;6291550;28;20119;-76
2023/12/17 03:49:59;;;;;;;16.88;11.25;;;;;;;;;;6285643;28;20127;-77
2023/12/17 03:53:01;;;;;;;10.90;6.40;;;;;;;;;;6285002;28;20067;-77
2023/12/17 03:56:13;;;;;;;13.82;6.95;;;;;;;;;;6289041;28;20040;-77
2023/12/17 03:59:15;;;;;;;8.95;5.70;;;;;;;;;;6290093;28;20131;-77
2023/12/17 04:02:18;;;;;;;10.70;4.72;;;;;;;;;;6296348;28;20198;-77
2023/12/17 04:05:20;;;;;;;7.38;4.90;;;;;;;;;;6290691;28;20049;-77
2023/12/17 04:08:23;;;;;;;7.95;5.50;;;;;;;;;;6290026;28;20534;-77
2023/12/17 04:11:25;;;;;;;5.22;3.83;;;;;;;;;;6274757;28;20048;-77
2023/12/17 04:14:28;;;;;;;9.35;5.03;;;;;;;;;;6289426;28;20052;-76
2023/12/17 04:17:30;;;;;;;9.25;5.05;;;;;;;;;;6287677;28;20664;-78
2023/12/17 04:20:32;;;;;;;9.63;5.90;;;;;;;;;;6269855;28;20822;-77
2023/12/17 04:23:36;;;;;;;11.18;6.85;;;;;;;;;;6287469;28;20072;-77
2023/12/17 04:26:39;;;;;;;9.13;4.72;;;;;;;;;;6303509;28;20063;-77
2023/12/17 04:29:41;;;;;;;12.20;8.40;;;;;;;;;;6261803;28;20530;-77
2023/12/17 04:32:44;;;;;;;13.23;8.45;;;;;;;;;;6306068;28;20194;-78
2023/12/17 04:35:46;;;;;;;12.75;6.90;;;;;;;;;;6280283;28;20051;-76
2023/12/17 04:38:49;;;;;;;13.93;6.88;;;;;;;;;;6289045;28;20044;-76
2023/12/17 04:41:52;;;;;;;20.98;12.80;;;;;;;;;;6280137;28;20101;-77
2023/12/17 04:44:54;;;;;;;21.52;11.15;;;;;;;;;;6291351;28;20048;-77
2023/12/17 04:47:56;;;;;;;14.30;10.60;;;;;;;;;;6289679;28;20474;-77
2023/12/17 04:50:59;;;;;;;19.80;11.00;;;;;;;;;;6258636;28;20053;-77
2023/12/17 04:54:01;;;;;;;21.73;10.10;;;;;;;;;;6254195;28;20045;-77
2023/12/17 04:57:05;;;;;;;13.13;7.75;;;;;;;;;;6292167;28;20032;-78
2023/12/17 05:00:09;;;;;;;14.25;8.32;;;;;;;;;;6288728;28;20508;-78
2023/12/17 05:03:11;;;;;;;14.27;7.70;;;;;;;;;;6281156;28;20060;-77
2023/12/17 05:06:15;;;;;;;19.25;10.15;;;;;;;;;;6290059;28;20044;-77
2023/12/17 05:09:18;;;;;;;18.05;11.52;;;;;;;;;;6273073;28;20040;-78
2023/12/17 05:12:21;;;;;;;15.15;9.00;;;;;;;;;;6267650;28;20048;-77
2023/12/17 05:15:26;;;;;;;9.60;7.28;;;;;;;;;;6292824;28;20093;-78
2023/12/17 05:18:28;;;;;;;14.23;8.13;;;;;;;;;;6294403;28;20036;-77
2023/12/17 05:21:30;;;;;;;13.68;7.75;;;;;;;;;;6273008;28;20341;-78
2023/12/17 05:24:32;;;;;;;12.65;9.05;;;;;;;;;;6287712;28;20048;-77
2023/12/17 05:27:37;;;;;;;15.40;9.10;;;;;;;;;;6297325;28;20047;-77
2023/12/17 05:30:39;;;;;;;15.85;7.80;;;;;;;;;;6289610;28;20032;-77
2023/12/17 05:33:46;;;;;;;10.93;7.03;;;;;;;;;;6274292;28;20052;-77
2023/12/17 05:36:50;;;;;;;15.70;10.68;;;;;;;;;;6272022;28;20085;-78
2023/12/17 05:39:52;;;;;;;13.73;8.07;;;;;;;;;;6285401;28;20047;-77
2023/12/17 05:42:54;;;;;;;12.00;8.35;;;;;;;;;;6286685;28;20074;-79
2023/12/17 05:45:57;;;;;;;26.42;14.73;;;;;;;;;;6273155;28;20850;-77
2023/12/17 05:49:00;;;;;;;23.00;11.75;;;;;;;;;;6287533;28;20129;-76
2023/12/17 05:52:02;;;;;;;26.25;14.43;;;;;;;;;;6267139;28;20048;-75
2023/12/17 05:55:05;;;;;;;31.73;16.27;;;;;;;;;;6285420;28;20044;-76
2023/12/17 05:58:08;;;;;;;30.27;16.35;;;;;;;;;;6298644;28;20056;-77
2023/12/17 06:01:11;;;;;;;23.88;13.02;;;;;;;;;;6291460;28;20048;-78
2023/12/17 06:04:13;;;;;;;18.08;10.30;;;;;;;;;;6257155;28;20040;-77
2023/12/17 06:07:17;;;;;;;18.38;9.88;;;;;;;;;;6293457;28;20543;-77
2023/12/17 06:10:20;;;;;;;16.40;10.45;;;;;;;;;;6292190;28;20051;-76
2023/12/17 06:13:34;;;;;;;20.00;12.98;;;;;;;;;;6297997;28;20056;-77
2023/12/17 06:17:08;;;;;;;15.80;10.48;;;;;;;;;;6291271;28;20068;-78
2023/12/17 06:20:21;;;;;;;22.02;13.98;;;;;;;;;;6295491;28;20040;-80
2023/12/17 06:23:43;;;;;;;15.27;9.27;;;;;;;;;;6307111;28;20411;-78
2023/12/17 06:26:48;;;;;;;18.00;11.93;;;;;;;;;;6312510;28;20167;-78
2023/12/17 06:29:55;;;;;;;12.77;7.50;;;;;;;;;;6286647;28;20031;-77
2023/12/17 06:33:01;;;;;;;11.23;7.45;;;;;;;;;;6280893;28;20293;-78
2023/12/17 06:36:05;;;;;;;13.15;9.50;;;;;;;;;;6305543;28;20070;-76
2023/12/17 06:39:11;;;;;;;10.93;6.50;;;;;;;;;;6323933;28;20067;-79
2023/12/17 06:42:27;;;;;;;12.32;7.78;;;;;;;;;;6344025;28;20399;-80
2023/12/17 06:45:46;;;;;;;20.05;9.15;;;;;;;;;;6314730;28;20044;-79
2023/12/17 06:49:07;;;;;;;12.25;8.05;;;;;;;;;;6319516;28;20070;-78
2023/12/17 06:52:23;;;;;;;14.93;8.68;;;;;;;;;;6298224;28;20048;-82
2023/12/17 06:55:39;;;;;;;17.40;10.60;;;;;;;;;;6283496;28;20068;-79
2023/12/17 06:58:44;;;;;;;13.20;8.43;;;;;;;;;;6275584;28;20049;-76
2023/12/17 07:01:56;;;;;;;13.88;8.13;;;;;;;;;;6295552;28;20747;-77
2023/12/17 07:05:03;;;;;;;13.75;8.68;;;;;;;;;;6274201;28;20126;-78
2023/12/17 07:08:25;;;;;;;14.02;9.30;;;;;;;;;;6288212;28;20051;-77
2023/12/17 07:11:33;;;;;;;15.85;9.20;;;;;;;;;;6290309;28;20128;-78
2023/12/17 07:14:41;;;;;;;13.52;8.43;;;;;;;;;;6269089;28;20171;-78
2023/12/17 07:17:53;;;;;;;14.45;9.27;;;;;;;;;;6246620;28;20048;-78
2023/12/17 07:21:08;;;;;;;15.35;8.25;;;;;;;;;;6255753;28;20044;-79
2023/12/17 07:24:21;;;;;;;17.17;8.45;;;;;;;;;;6284592;28;20044;-79
2023/12/17 07:27:42;;;;;;;16.88;8.32;;;;;;;;;;6269686;28;20190;-79
2023/12/17 07:30:59;;;;;;;15.05;9.38;;;;;;;;;;6263840;28;20052;-80
2023/12/17 07:34:08;;;;;;;13.60;9.93;;;;;;;;;;6284565;28;20431;-78
2023/12/17 07:37:19;;;;;;;16.25;10.02;;;;;;;;;;6269188;28;20101;-78
2023/12/17 07:40:26;;;;;;;18.15;11.23;;;;;;;;;;6273128;28;20135;-79
2023/12/17 07:43:29;;;;;;;20.38;12.63;;;;;;;;;;6300704;28;20052;-79
2023/12/17 07:46:43;;;;;;;20.13;9.80;;;;;;;;;;6296523;28;20482;-79
2023/12/17 07:49:58;;;;;;;18.20;10.20;;;;;;;;;;6265241;28;20519;-78
2023/12/17 07:53:05;;;;;;;15.85;10.50;;;;;;;;;;6249483;28;20071;-78
2023/12/17 07:56:10;;;;;;;17.23;10.73;;;;;;;;;;6266781;28;20871;-79
2023/12/17 07:59:15;;;;;;;16.65;8.48;;;;;;;;;;6285385;28;20044;-78
2023/12/17 08:02:19;;;;;;;16.75;9.07;;;;;;;;;;6267021;28;20058;-79
2023/12/17 08:05:28;;;;;;;20.85;12.88;;;;;;;;;;6266464;28;20097;-77
2023/12/17 08:08:31;;;;;;;14.63;10.02;;;;;;;;;;6268998;28;20041;-77
2023/12/17 08:11:34;;;;;;;27.95;12.80;;;;;;;;;;6282788;28;20048;-77
2023/12/17 08:14:37;;;;;;;22.77;14.40;;;;;;;;;;6284444;28;20073;-77
2023/12/17 08:17:40;;;;;;;21.55;12.85;;;;;;;;;;6247782;28;20040;-79
2023/12/17 08:20:43;;;;;;;20.67;12.07;;;;;;;;;;6285295;28;20137;-77
2023/12/17 08:23:45;;;;;;;18.30;10.18;;;;;;;;;;6252935;28;20059;-77
2023/12/17 08:26:47;;;;;;;21.10;12.10;;;;;;;;;;6292666;28;20048;-77
2023/12/17 08:29:50;;;;;;;18.05;11.35;;;;;;;;;;6290273;28;20043;-78
2023/12/17 08:32:53;;;;;;;22.33;13.63;;;;;;;;;;6285049;28;20193;-77
2023/12/17 08:35:55;;;;;;;24.40;13.43;;;;;;;;;;6267586;28;20099;-78
2023/12/17 08:38:58;;;;;;;24.90;14.73;;;;;;;;;;6287284;28;20071;-77
2023/12/17 08:42:00;;;;;;;16.25;10.45;;;;;;;;;;6245250;28;20044;-76
2023/12/17 08:45:03;;;;;;;18.20;10.63;;;;;;;;;;6297806;28;20101;-78
2023/12/17 08:48:06;;;;;;;14.60;7.93;;;;;;;;;;6279165;28;20052;-78
2023/12/17 08:51:08;;;;;;;19.20;12.10;;;;;;;;;;6301633;28;20040;-78
2023/12/17 08:54:12;;;;;;;11.30;7.55;;;;;;;;;;6286350;28;20048;-79
2023/12/17 08:57:15;;;;;;;20.00;11.93;;;;;;;;;;6285348;28;20125;-77
2023/12/17 09:00:18;;;;;;;12.85;8.40;;;;;;;;;;6264220;28;20044;-75
2023/12/17 09:03:20;;;;;;;16.50;11.13;;;;;;;;;;6286615;28;20052;-77
2023/12/17 09:06:23;;;;;;;13.80;8.85;;;;;;;;;;6268876;28;20055;-77
2023/12/17 09:09:26;;;;;;;22.70;12.85;;;;;;;;;;6266798;28;20117;-76
2023/12/17 09:12:29;;;;;;;18.88;10.45;;;;;;;;;;6268736;28;20055;-77
2023/12/17 09:15:32;;;;;;;11.38;8.02;;;;;;;;;;6282788;28;20761;-77
2023/12/17 09:18:34;;;;;;;16.52;10.50;;;;;;;;;;6283710;28;20067;-77
2023/12/17 09:21:37;;;;;;;17.00;10.98;;;;;;;;;;6266334;28;20041;-76
2023/12/17 09:24:40;;;;;;;12.93;9.57;;;;;;;;;;6284777;28;20048;-77
2023/12/17 09:27:54;;;;;;;30.15;14.98;;;;;;;;;;6283669;28;20507;-77
2023/12/17 09:30:56;;;;;;;15.93;7.35;;;;;;;;;;6283038;28;20690;-77
2023/12/17 09:33:58;;;;;;;13.60;8.82;;;;;;;;;;6243720;28;20056;-76
2023/12/17 09:37:00;;;;;;;14.07;7.25;;;;;;;;;;6294877;28;20132;-76
2023/12/17 09:40:04;;;;;;;37.58;18.52;;;;;;;;;;6304052;28;20033;-77
2023/12/17 09:43:07;;;;;;;26.25;10.55;;;;;;;;;;6301670;28;20066;-77
2023/12/17 09:46:09;;;;;;;29.67;12.93;;;;;;;;;;6299419;28;20051;-77
2023/12/17 09:49:12;;;;;;;17.73;7.97;;;;;;;;;;6317120;28;20033;-76
2023/12/17 09:52:18;;;;;;;15.98;6.90;;;;;;;;;;6279040;28;20143;-76
2023/12/17 09:55:20;;;;;;;51.63;19.50;;;;;;;;;;6283932;28;20045;-76
2023/12/17 09:58:25;;;;;;;19.55;9.70;;;;;;;;;;6272126;28;20051;-77
2023/12/17 10:01:27;;;;;;;21.52;10.18;;;;;;;;;;6261173;28;20051;-75
2023/12/17 10:04:32;;;;;;;36.22;17.80;;;;;;;;;;6283444;28;20040;-76
2023/12/17 10:07:36;;;;;;;17.13;8.02;;;;;;;;;;6252727;28;20611;-76
2023/12/17 10:10:39;;;;;;;12.95;7.90;;;;;;;;;;6287587;28;20802;-77
2023/12/17 10:13:41;;;;;;;7.38;5.20;;;;;;;;;;6285108;28;20152;-75
2023/12/17 10:16:46;;;;;;;12.75;9.45;;;;;;;;;;6281131;28;20056;-76
2023/12/17 10:19:53;;;;;;;11.23;8.27;;;;;;;;;;6285084;28;20036;-76
2023/12/17 10:23:00;;;;;;;15.80;12.50;;;;;;;;;;6294395;28;20123;-78
2023/12/17 10:26:04;;;;;;;19.85;11.35;;;;;;;;;;6280691;28;20169;-74
2023/12/17 10:29:08;;;;;;;11.30;7.70;;;;;;;;;;6267318;28;20032;-77
2023/12/17 10:32:11;;;;;;;7.95;5.03;;;;;;;;;;6278092;28;20797;-75
2023/12/17 10:35:14;;;;;;;17.65;10.45;;;;;;;;;;6287124;28;20518;-74
2023/12/17 10:38:18;;;;;;;18.80;11.07;;;;;;;;;;6278007;28;20056;-75
2023/12/17 10:41:21;;;;;;;8.10;6.30;;;;;;;;;;6269819;28;20052;-75
2023/12/17 10:44:23;;;;;;;22.77;14.15;;;;;;;;;;6289104;28;20047;-75
2023/12/17 10:47:25;;;;;;;23.00;10.25;;;;;;;;;;6268773;28;20627;-75
2023/12/17 10:50:30;;;;;;;7.80;4.93;;;;;;;;;;6301807;28;20129;-74
2023/12/17 10:53:32;;;;;;;9.60;6.75;;;;;;;;;;6270634;28;20135;-75
2023/12/17 10:56:41;;;;;;;15.38;9.18;;;;;;;;;;6279580;28;20048;-75
2023/12/17 10:59:48;;;;;;;9.80;5.93;;;;;;;;;;6259876;28;20044;-74
2023/12/17 11:02:52;;;;;;;12.70;7.57;;;;;;;;;;6268475;28;20207;-75
2023/12/17 11:05:56;;;;;;;13.25;8.52;;;;;;;;;;6285438;28;20044;-75
2023/12/17 11:08:58;;;;;;;11.50;7.55;;;;;;;;;;6254889;28;20086;-76
2023/12/17 11:12:05;;;;;;;14.40;8.90;;;;;;;;;;6270268;28;20678;-75
2023/12/17 11:15:08;;;;;;;18.25;10.35;;;;;;;;;;6282365;28;20040;-75
2023/12/17 11:18:10;;;;;;;11.45;8.07;;;;;;;;;;6270456;28;20048;-75
2023/12/17 11:21:13;;;;;;;10.02;6.05;;;;;;;;;;6318021;28;20036;-76
2023/12/17 11:24:18;;;;;;;14.48;9.05;;;;;;;;;;6268730;28;20094;-75
2023/12/17 11:27:22;;;;;;;14.23;9.23;;;;;;;;;;6269077;28;20424;-76
2023/12/17 11:30:27;;;;;;;12.27;7.65;;;;;;;;;;6256273;28;20046;-75
2023/12/17 11:33:30;;;;;;;;;;;;;;;;;;6285269;28;20446;-74
2023/12/17 11:36:32;;;;;;;10.55;7.43;;;;;;;;;;6267036;28;20081;-74
2023/12/17 11:39:35;;;;;;;10.98;6.47;;;;;;;;;;6290575;28;20127;-75
2023/12/17 11:42:40;;;;;;;14.15;8.45;;;;;;;;;;6267841;28;20052;-74
2023/12/17 11:45:47;;;;;;;16.23;11.25;;;;;;;;;;6287051;28;20041;-75
2023/12/17 11:48:50;;;;;;;16.90;10.27;;;;;;;;;;6269885;28;20523;-75
2023/12/17 11:51:53;;;;;;;19.83;12.70;;;;;;;;;;6286159;28;20047;-75
2023/12/17 11:55:01;;;;;;;16.67;9.52;;;;;;;;;;6286646;28;20060;-75
2023/12/17 11:58:03;;;;;;;20.30;12.43;;;;;;;;;;6277013;28;20048;-75
2023/12/17 12:01:06;;;;;;;14.02;7.15;;;;;;;;;;6264864;28;20644;-75
2023/12/17 12:04:09;;;;;;;20.42;13.15;;;;;;;;;;6253011;28;20801;-76
2023/12/17 12:07:17;;;;;;;22.20;13.13;;;;;;;;;;6291367;28;20052;-76
2023/12/17 12:10:19;;;;;;;37.92;18.48;;;;;;;;;;6256211;28;20056;-76
2023/12/17 12:13:23;;;;;;;27.67;14.57;;;;;;;;;;6237040;28;20059;-77
2023/12/17 12:16:39;;;;;;;16.70;10.88;;;;;;;;;;6273321;28;20114;-76
2023/12/17 12:19:48;;;;;;;18.20;9.88;;;;;;;;;;6286890;28;20489;-76
2023/12/17 12:22:50;;;;;;;11.43;8.55;;;;;;;;;;6286258;28;20521;-76
2023/12/17 12:25:59;;;;;;;10.18;6.43;;;;;;;;;;6282639;28;20366;-78
2023/12/17 12:29:04;;;;;;;11.65;7.93;;;;;;;;;;6271622;28;20111;-77
2023/12/17 12:32:07;;;;;;;16.83;10.43;;;;;;;;;;6265002;28;20048;-78
2023/12/17 12:35:20;;;;;;;21.27;11.25;;;;;;;;;;6277097;28;20553;-77
2023/12/17 12:38:26;;;;;;;14.90;10.93;;;;;;;;;;6273461;28;20075;-76
2023/12/17 12:41:31;;;;;;;11.73;7.32;;;;;;;;;;6277390;28;20067;-77
2023/12/17 12:44:34;;;;;;;16.23;9.80;;;;;;;;;;6285635;28;20049;-78
2023/12/17 12:47:37;;;;;;;18.42;9.35;;;;;;;;;;6272298;28;20479;-77
2023/12/17 12:50:39;;;;;;;13.95;9.02;;;;;;;;;;6271317;28;20731;-75
2023/12/17 12:53:43;;;;;;;18.30;11.07;;;;;;;;;;6256635;28;20463;-76
2023/12/17 12:56:46;;;;;;;19.63;9.82;;;;;;;;;;6278717;28;20056;-75
2023/12/17 12:59:49;;;;;;;14.02;9.90;;;;;;;;;;6257700;28;20074;-75
2023/12/17 13:02:52;;;;;;;15.88;9.23;;;;;;;;;;6278374;28;20058;-77
2023/12/17 13:05:55;;;;;;;12.82;8.90;;;;;;;;;;6331586;27;20044;-78
2023/12/17 13:08:58;;;;;;;14.00;8.63;;;;;;;;;;6295157;28;20044;-78
2023/12/17 13:12:00;;;;;;;17.05;8.48;;;;;;;;;;6301509;28;20051;-78
2023/12/17 13:15:03;;;;;;;9.40;5.93;;;;;;;;;;6283568;28;20044;-76
2023/12/17 13:18:06;;;;;;;14.23;9.43;;;;;;;;;;6289552;28;20051;-78
2023/12/17 13:21:10;;;;;;;11.50;7.85;;;;;;;;;;6298195;28;20044;-78
2023/12/17 13:24:15;;;;;;;16.27;9.93;;;;;;;;;;6284566;28;20036;-78
2023/12/17 13:27:17;;;;;;;14.35;8.55;;;;;;;;;;6301041;28;20099;-76
2023/12/17 13:30:22;;;;;;;12.30;8.30;;;;;;;;;;6301047;28;20143;-79
2023/12/17 13:33:25;;;;;;;10.93;6.30;;;;;;;;;;6300960;28;20552;-79
2023/12/17 13:36:28;;;;;;;14.30;9.27;;;;;;;;;;6297975;28;20059;-80
2023/12/17 13:39:35;;;;;;;15.93;10.82;;;;;;;;;;6298216;28;20056;-76
2023/12/17 13:42:39;;;;;;;18.25;11.45;;;;;;;;;;6293881;28;20196;-81
2023/12/17 13:45:42;;;;;;;11.02;7.03;;;;;;;;;;6315292;28;20048;-84
2023/12/17 13:48:49;;;;;;;13.75;9.98;;;;;;;;;;6316235;28;20444;-83
2023/12/17 13:51:55;;;;;;;12.88;8.07;;;;;;;;;;6301321;28;20117;-81
2023/12/17 13:54:58;;;;;;;15.85;10.73;;;;;;;;;;6291901;28;20426;-80
2023/12/17 13:58:00;;;;;;;19.98;11.85;;;;;;;;;;6306421;28;20043;-81
2023/12/17 14:01:02;;;;;;;44.00;18.50;;;;;;;;;;6305305;28;20123;-82
2023/12/17 14:04:06;;;;;;;16.00;8.77;;;;;;;;;;6298259;28;20052;-80
2023/12/17 14:07:10;;;;;;;14.93;11.55;;;;;;;;;;6328882;28;20021;-82
2023/12/17 14:10:12;;;;;;;16.10;10.02;;;;;;;;;;6306051;28;20063;-81
2023/12/17 14:13:17;;;;;;;11.68;8.73;;;;;;;;;;6298126;28;20125;-81
2023/12/17 14:16:28;;;;;;;14.02;7.93;;;;;;;;;;6284765;28;20059;-77
2023/12/17 14:19:34;;;;;;;18.35;15.10;;;;;;;;;;6319253;28;20063;-79
2023/12/17 14:22:37;;;;;;;14.68;7.55;;;;;;;;;;6313429;28;20056;-79
2023/12/17 14:25:40;;;;;;;15.55;9.00;;;;;;;;;;6309768;28;20058;-79
2023/12/17 14:28:49;;;;;;;14.40;8.70;;;;;;;;;;6327872;28;20048;-77
2023/12/17 14:31:53;;;;;;;17.95;8.63;;;;;;;;;;6300718;28;20835;-80
2023/12/17 14:34:57;;;;;;;16.42;12.38;;;;;;;;;;6301746;28;20044;-79
2023/12/17 14:37:59;;;;;;;17.52;11.13;;;;;;;;;;6328687;28;20051;-79
2023/12/17 14:41:03;;;;;;;13.50;8.48;;;;;;;;;;6292999;28;20152;-79
2023/12/17 14:44:06;;;;;;;12.93;8.90;;;;;;;;;;6325548;28;20044;-79
2023/12/17 14:47:09;;;;;;;17.65;11.07;;;;;;;;;;6310273;28;20048;-78
2023/12/17 14:50:11;;;;;;;13.02;8.95;;;;;;;;;;6291660;28;20937;-78
2023/12/17 14:53:14;;;;;;;17.02;10.80;;;;;;;;;;6329004;28;20082;-79
2023/12/17 14:56:17;;;;;;;20.90;12.15;;;;;;;;;;6308689;28;20044;-77
2023/12/17 14:59:19;;;;;;;17.88;11.68;;;;;;;;;;6286102;28;20509;-78
2023/12/17 15:02:22;;;;;;;16.77;10.98;;;;;;;;;;6325554;28;20423;-80
2023/12/17 15:05:24;;;;;;;16.10;9.10;;;;;;;;;;6299669;28;20108;-78
2023/12/17 15:08:30;;;;;;;20.95;13.32;;;;;;;;;;6294463;28;20131;-78
2023/12/17 15:11:33;;;;;;;23.00;14.70;;;;;;;;;;6293824;28;20048;-83
2023/12/17 15:14:35;;;;;;;11.57;9.00;;;;;;;;;;6312351;28;20049;-77
2023/12/17 15:17:39;;;;;;;22.13;12.73;;;;;;;;;;6261548;28;20039;-78
2023/12/17 15:20:42;;;;;;;19.25;10.80;;;;;;;;;;6289321;28;20036;-76
2023/12/17 15:23:44;;;;;;;22.63;12.52;;;;;;;;;;6298304;28;20108;-76
2023/12/17 15:26:46;;;;;;;29.23;16.58;;;;;;;;;;6278582;28;20047;-77
2023/12/17 15:29:49;;;;;;;39.55;21.33;;;;;;;;;;6282357;28;20049;-77
2023/12/17 15:32:54;;;;;;;18.60;13.25;;;;;;;;;;6281682;28;20518;-76
2023/12/17 15:35:57;;;;;;;21.77;11.73;;;;;;;;;;6294960;28;20056;-76
2023/12/17 15:39:00;;;;;;;28.20;14.52;;;;;;;;;;6286286;28;20867;-76
2023/12/17 15:42:02;;;;;;;24.60;15.25;;;;;;;;;;6293566;28;20040;-76
2023/12/17 15:45:05;;;;;;;21.42;12.32;;;;;;;;;;6278408;28;20070;-77
2023/12/17 15:48:08;;;;;;;21.55;13.35;;;;;;;;;;6295097;28;20055;-78
2023/12/17 15:51:11;;;;;;;24.08;14.48;;;;;;;;;;6277766;28;20096;-77
2023/12/17 15:54:14;;;;;;;19.92;8.52;;;;;;;;;;6277984;28;20150;-77
2023/12/17 15:57:16;;;;;;;15.98;11.68;;;;;;;;;;6308613;28;20052;-77
2023/12/17 16:00:21;;;;;;;17.38;9.93;;;;;;;;;;6294653;28;20064;-79
2023/12/17 16:03:23;;;;;;;10.70;7.60;;;;;;;;;;6295856;28;20063;-77
2023/12/17 16:06:27;;;;;;;17.05;10.60;;;;;;;;;;6292338;28;20109;-74
2023/12/17 16:09:29;;;;;;;20.40;11.73;;;;;;;;;;6273241;28;20043;-74
2023/12/17 16:12:31;;;;;;;13.88;8.52;;;;;;;;;;6318327;28;20197;-74
2023/12/17 16:15:33;;;;;;;15.40;10.10;;;;;;;;;;6295031;28;20074;-74
2023/12/17 16:18:36;;;;;;;18.65;12.43;;;;;;;;;;6309882;28;20589;-73
2023/12/17 16:21:39;;;;;;;20.55;14.27;;;;;;;;;;6275573;28;20121;-76
2023/12/17 16:24:44;;;;;;;16.83;10.75;;;;;;;;;;6309837;28;20086;-76
2023/12/17 16:27:46;;;;;;;20.85;14.02;;;;;;;;;;6267611;28;20080;-77
2023/12/17 16:30:49;;;;;;;32.13;16.30;;;;;;;;;;6294124;28;20047;-77
2023/12/17 16:33:51;;;;;;;26.00;14.13;;;;;;;;;;6289294;28;20840;-77
2023/12/17 16:36:54;;;;;;;38.40;21.17;;;;;;;;;;6290316;28;20043;-77
2023/12/17 16:39:59;;;;;;;44.25;22.30;;;;;;;;;;6295371;28;20044;-77
2023/12/17 16:43:04;;;;;;;27.13;17.45;;;;;;;;;;6273948;28;20044;-77
2023/12/17 16:46:06;;;;;;;40.08;21.33;;;;;;;;;;6294908;28;20048;-77
2023/12/17 16:49:10;;;;;;;41.55;22.63;;;;;;;;;;6280328;28;20043;-76
2023/12/17 16:52:12;;;;;;;24.95;15.32;;;;;;;;;;6292902;28;20070;-77
2023/12/17 16:55:18;;;;;;;43.30;23.20;;;;;;;;;;6297452;28;20032;-77
2023/12/17 16:58:20;;;;;;;37.45;20.33;;;;;;;;;;6293916;28;20050;-77
2023/12/17 17:01:23;;;;;;;36.05;21.25;;;;;;;;;;6325845;28;20435;-76
2023/12/17 17:04:25;;;;;;;33.63;19.20;;;;;;;;;;6291826;28;20175;-76
2023/12/17 17:07:27;;;;;;;37.20;20.33;;;;;;;;;;6287538;28;20158;-77
2023/12/17 17:10:32;;;;;;;32.85;19.17;;;;;;;;;;6288611;28;20044;-76
2023/12/17 17:13:34;;;;;;;34.85;19.83;;;;;;;;;;6287729;28;20066;-77
2023/12/17 17:16:36;;;;;;;44.60;22.42;;;;;;;;;;6309701;28;20059;-78
2023/12/17 17:19:38;;;;;;;38.20;21.80;;;;;;;;;;6273770;28;20085;-77
2023/12/17 17:22:41;;;;;;;36.83;20.52;;;;;;;;;;6292624;28;20051;-77
2023/12/17 17:25:44;;;;;;;37.80;19.83;;;;;;;;;;6294211;28;20726;-77
2023/12/17 17:28:46;;;;;;;32.80;17.80;;;;;;;;;;6313780;28;20048;-78
2023/12/17 17:31:50;;;;;;;41.08;24.98;;;;;;;;;;6275023;28;20047;-78
2023/12/17 17:34:53;;;;;;;34.50;19.83;;;;;;;;;;6274800;28;20169;-77
2023/12/17 17:37:55;;;;;;;34.28;22.90;;;;;;;;;;6287338;28;20124;-77
2023/12/17 17:40:58;;;;;;;36.47;21.80;;;;;;;;;;6292714;28;20040;-77
2023/12/17 17:44:00;;;;;;;38.08;22.52;;;;;;;;;;6292406;28;20047;-77
2023/12/17 17:47:03;;;;;;;29.40;17.30;;;;;;;;;;6309626;28;20051;-77
2023/12/17 17:50:08;;;;;;;31.25;17.58;;;;;;;;;;6297902;28;20051;-77
2023/12/17 17:53:13;;;;;;;40.00;21.95;;;;;;;;;;6296725;28;20036;-77
2023/12/17 17:56:19;;;;;;;35.70;21.02;;;;;;;;;;6286517;28;20426;-77
2023/12/17 17:59:30;;;;;;;27.48;14.98;;;;;;;;;;6303496;28;20454;-77
2023/12/17 18:02:32;;;;;;;30.77;17.20;;;;;;;;;;6304056;28;20173;-77